Time;durP1;ratioP1;P1;durP2;ratioP2;P2;SDS_P1;SDS_P2;PMS_P1;PMS_P2;Temp;Humidity;BMP_temperature;BMP_pressure;BME280_temperature;BME280_humidity;BME280_pressure;Samples;Min_cycle;Max_cycle;Signal;HPM_P1;HPM_P2
2023/03/27 00:00:26;;;;;;;;;;;5.00;99.90;;;;;;8307134;28;19962;-76
2023/03/27 00:04:27;;;;;;;;;;;5.00;99.90;;;;;;8297587;28;19996;-76
2023/03/27 00:08:28;;;;;;;;;;;4.90;99.90;;;;;;8306864;28;19913;-76
2023/03/27 00:12:29;;;;;;;;;;;4.90;99.90;;;;;;8306993;28;19909;-76
2023/03/27 00:16:29;;;;;;;;;;;4.90;99.90;;;;;;8320014;28;19924;-75
2023/03/27 00:20:36;;;;;;;;;;;4.90;99.90;;;;;;8307954;28;19932;-76
2023/03/27 00:24:36;;;;;;;;;;;4.90;99.90;;;;;;8305465;28;19905;-77
2023/03/27 00:28:36;;;;;;;;;;;4.70;99.90;;;;;;8323973;28;19916;-76
2023/03/27 00:32:37;;;;;;;;;;;4.70;99.90;;;;;;8306614;28;19951;-76
2023/03/27 00:36:37;;;;;;;;;;;4.70;99.90;;;;;;8306927;28;19956;-76
2023/03/27 00:40:38;;;;;;;;;;;4.70;99.90;;;;;;8306362;28;19924;-76
2023/03/27 00:44:41;;;;;;;;;;;4.70;99.90;;;;;;8318507;28;19971;-76
2023/03/27 00:48:45;;;;;;;;;;;4.80;99.90;;;;;;8313252;28;20485;-76
2023/03/27 00:52:47;;;;;;;;;;;4.80;99.90;;;;;;8309981;28;19984;-75
2023/03/27 00:56:48;;;;;;;;;;;4.80;99.90;;;;;;8312621;28;20072;-76
2023/03/27 01:00:51;;;;;;;;;;;4.80;99.90;;;;;;8335844;28;20003;-75
2023/03/27 01:04:52;;;;;;;;;;;4.80;99.90;;;;;;8318629;28;19978;-76
2023/03/27 01:08:53;;;;;;;;;;;4.90;99.90;;;;;;8312314;28;19909;-76
2023/03/27 01:13:18;;;;;;;;;;;4.80;99.90;;;;;;8311200;28;19909;-76
2023/03/27 01:17:19;;;;;;;;;;;4.90;99.90;;;;;;8318937;28;19920;-76
2023/03/27 01:21:19;;;;;;;;;;;5.00;99.90;;;;;;8321671;28;20016;-76
2023/03/27 01:25:20;;;;;;;;;;;4.90;99.90;;;;;;8315452;28;20487;-76
2023/03/27 01:29:26;;;;;;;;;;;4.70;99.90;;;;;;8332291;28;20292;-76
2023/03/27 01:33:29;;;;;;;;;;;4.70;99.90;;;;;;8315535;28;19908;-76
2023/03/27 01:37:32;;;;;;;;;;;4.80;99.90;;;;;;8337145;28;20341;-76
2023/03/27 01:41:42;;;;;;;;;;;4.80;99.90;;;;;;8310700;28;19920;-76
2023/03/27 01:45:46;;;;;;;;;;;4.80;99.90;;;;;;8316755;28;20472;-76
2023/03/27 01:49:53;;;;;;;;;;;4.80;99.90;;;;;;8330646;28;19916;-76
2023/03/27 01:53:56;;;;;;;;;;;4.70;99.90;;;;;;8309218;28;19983;-76
2023/03/27 01:58:03;;;;;;;;;;;4.70;99.90;;;;;;8327942;28;20288;-76
2023/03/27 02:02:09;;;;;;;;;;;4.80;99.90;;;;;;8326986;28;19920;-76
2023/03/27 02:06:15;;;;;;;;;;;4.90;99.90;;;;;;8311072;28;19915;-76
2023/03/27 02:10:19;;;;;;;;;;;4.90;99.90;;;;;;8313657;28;19971;-76
2023/03/27 02:14:22;;;;;;;;;;;5.00;99.90;;;;;;8330766;28;20445;-77
2023/03/27 02:18:26;;;;;;;;;;;4.90;99.90;;;;;;8327210;28;19913;-76
2023/03/27 02:22:27;;;;;;;;;;;4.90;99.90;;;;;;8309571;28;19908;-77
2023/03/27 02:26:28;;;;;;;;;;;4.90;99.90;;;;;;8309931;28;19975;-76
2023/03/27 02:30:31;;;;;;;;;;;4.90;99.90;;;;;;8327085;28;19913;-77
2023/03/27 02:34:52;;;;;;;;;;;4.80;99.90;;;;;;8307773;28;19936;-77
2023/03/27 02:38:59;;;;;;;;;;;4.80;99.90;;;;;;8273255;28;19963;-76
2023/03/27 02:43:06;;;;;;;;;;;4.80;99.90;;;;;;8308097;28;19921;-76
2023/03/27 02:47:32;;;;;;;;;;;4.70;99.90;;;;;;8305890;28;20432;-76
2023/03/27 02:51:56;;;;;;;;;;;4.80;99.90;;;;;;8311728;28;19913;-76
2023/03/27 02:55:58;;;;;;;;;;;4.80;99.90;;;;;;8306400;28;19919;-76
2023/03/27 03:00:12;;;;;;;;;;;4.70;99.90;;;;;;8308526;28;19917;-76
2023/03/27 03:04:23;;;;;;;;;;;4.60;99.90;;;;;;8310003;28;19995;-76
2023/03/27 03:08:29;;;;;;;;;;;4.40;99.90;;;;;;8311390;28;19909;-76
2023/03/27 03:12:29;;;;;;;;;;;4.20;99.90;;;;;;8311519;28;19948;-77
2023/03/27 03:16:30;;;;;;;;;;;4.20;99.90;;;;;;8309653;28;19921;-76
2023/03/27 03:20:30;;;;;;;;;;;4.10;99.90;;;;;;8334686;28;19913;-76
2023/03/27 03:24:33;;;;;;;;;;;4.00;99.90;;;;;;8307603;28;19909;-76
2023/03/27 03:28:36;;;;;;;;;;;4.00;99.90;;;;;;8311625;28;19909;-76
2023/03/27 03:32:38;;;;;;;;;;;4.00;99.90;;;;;;8331667;28;20304;-77
2023/03/27 03:36:40;;;;;;;;;;;4.00;99.90;;;;;;8301151;28;19921;-77
2023/03/27 03:40:41;;;;;;;;;;;3.90;99.90;;;;;;8321145;28;20330;-77
2023/03/27 03:44:41;;;;;;;;;;;3.90;99.90;;;;;;8306157;28;19909;-77
2023/03/27 03:48:42;;;;;;;;;;;3.90;99.90;;;;;;8314322;28;19986;-77
2023/03/27 03:52:43;;;;;;;;;;;3.90;99.90;;;;;;8324044;28;19913;-77
2023/03/27 03:56:44;;;;;;;;;;;3.80;99.90;;;;;;8318150;28;20377;-76
2023/03/27 04:00:45;;;;;;;;;;;3.80;99.90;;;;;;8308741;28;20004;-76
2023/03/27 04:04:46;;;;;;;;;;;3.80;99.90;;;;;;8306502;28;19974;-77
2023/03/27 04:08:47;;;;;;;;;;;3.80;99.90;;;;;;8314864;28;19908;-77
2023/03/27 04:12:48;;;;;;;;;;;3.70;99.90;;;;;;8326513;28;19915;-76
2023/03/27 04:16:48;;;;;;;;;;;3.70;99.90;;;;;;8310238;28;20114;-76
2023/03/27 04:20:49;;;;;;;;;;;3.60;99.90;;;;;;8327681;28;19932;-76
2023/03/27 04:24:49;;;;;;;;;;;3.60;99.90;;;;;;8308039;28;19909;-76
2023/03/27 04:28:50;;;;;;;;;;;3.60;99.90;;;;;;8312887;28;19909;-77
2023/03/27 04:32:51;;;;;;;;;;;3.60;99.90;;;;;;8315296;28;19916;-79
2023/03/27 04:36:53;;;;;;;;;;;3.50;99.90;;;;;;8312286;28;19929;-76
2023/03/27 04:40:53;;;;;;;;;;;3.60;99.90;;;;;;8319082;28;19913;-77
2023/03/27 04:44:53;;;;;;;;;;;3.50;99.90;;;;;;8313963;28;19909;-78
2023/03/27 04:48:55;;;;;;;;;;;3.50;99.90;;;;;;8339248;28;20549;-76
2023/03/27 04:52:58;;;;;;;;;;;3.30;99.90;;;;;;8331965;28;19917;-76
2023/03/27 04:57:02;;;;;;;;;;;3.10;99.90;;;;;;8312044;28;19929;-76
2023/03/27 05:01:04;;;;;;;;;;;3.10;99.90;;;;;;8329566;28;19920;-77
2023/03/27 05:05:04;;;;;;;;;;;3.00;99.90;;;;;;8316758;28;20399;-77
2023/03/27 05:09:05;;;;;;;;;;;3.00;99.90;;;;;;8315302;28;19955;-77
2023/03/27 05:13:06;;;;;;;;;;;3.10;99.90;;;;;;8311248;28;19917;-76
2023/03/27 05:17:08;;;;;;;;;;;3.10;99.90;;;;;;8311780;28;19956;-77
2023/03/27 05:21:09;;;;;;;;;;;3.10;99.90;;;;;;8333945;28;20420;-76
2023/03/27 05:25:11;;;;;;;;;;;3.00;99.90;;;;;;8334354;28;19909;-76
2023/03/27 05:29:12;;;;;;;;;;;2.90;99.90;;;;;;8340168;28;19956;-76
2023/03/27 05:33:13;;;;;;;;;;;2.90;99.90;;;;;;8316661;28;19916;-77
2023/03/27 05:37:15;;;;;;;;;;;2.90;99.90;;;;;;8328280;28;19905;-76
2023/03/27 05:41:15;;;;;;;;;;;2.90;99.90;;;;;;8310103;28;19913;-76
2023/03/27 05:45:16;;;;;;;;;;;2.80;99.90;;;;;;8310131;28;19909;-76
2023/03/27 05:49:17;;;;;;;;;;;2.70;99.90;;;;;;8333089;28;19948;-76
2023/03/27 05:53:17;;;;;;;;;;;2.60;99.90;;;;;;8309817;28;19952;-76
2023/03/27 05:57:18;;;;;;;;;;;2.50;99.90;;;;;;8333887;28;19909;-77
2023/03/27 06:01:20;;;;;;;;;;;2.40;99.90;;;;;;8309453;28;20436;-77
2023/03/27 06:05:20;;;;;;;;;;;2.40;99.90;;;;;;8327688;28;19916;-77
2023/03/27 06:09:21;;;;;;;;;;;2.40;99.90;;;;;;8309954;28;19909;-76
2023/03/27 06:13:23;;;;;;;;;;;2.30;99.90;;;;;;8327647;28;19905;-76
2023/03/27 06:17:23;;;;;;;;;;;2.30;99.90;;;;;;8310168;28;19905;-76
2023/03/27 06:21:24;;;;;;;;;;;2.40;99.90;;;;;;8309545;28;20376;-75
2023/03/27 06:25:25;;;;;;;;;;;2.30;99.90;;;;;;8309086;28;20007;-77
2023/03/27 06:29:28;;;;;;;;;;;2.40;99.90;;;;;;8309085;28;20024;-76
2023/03/27 06:33:28;;;;;;;;;;;2.60;99.90;;;;;;8325966;28;19908;-77
2023/03/27 06:37:35;;;;;;;;;;;2.80;99.90;;;;;;8309625;28;19928;-76
2023/03/27 06:41:36;;;;;;;;;;;3.00;99.90;;;;;;8307708;28;20424;-77
2023/03/27 06:45:44;;;;;;;;;;;3.10;99.90;;;;;;8306830;28;19909;-77
2023/03/27 06:49:46;;;;;;;;;;;3.10;99.90;;;;;;8324511;28;19905;-78
2023/03/27 06:53:48;;;;;;;;;;;3.20;99.90;;;;;;8325643;28;19905;-76
2023/03/27 06:57:50;;;;;;;;;;;3.30;99.90;;;;;;8308120;28;20401;-77
2023/03/27 07:01:51;;;;;;;;;;;3.10;99.90;;;;;;8307903;28;19909;-77
2023/03/27 07:05:51;;;;;;;;;;;2.90;99.90;;;;;;8325524;28;19909;-76
2023/03/27 07:09:52;;;;;;;;;;;3.00;99.90;;;;;;8307721;28;19924;-76
2023/03/27 07:13:52;;;;;;;;;;;2.90;99.90;;;;;;8325443;28;20300;-77
2023/03/27 07:18:00;;;;;;;;;;;2.60;99.90;;;;;;8312000;28;19909;-77
2023/03/27 07:22:02;;;;;;;;;;;2.40;99.90;;;;;;8329081;28;19929;-76
2023/03/27 07:26:02;;;;;;;;;;;2.60;99.90;;;;;;8325375;28;19916;-78
2023/03/27 07:30:03;;;;;;;;;;;2.50;99.90;;;;;;8324856;28;19959;-76
2023/03/27 07:34:04;;;;;;;;;;;2.70;99.90;;;;;;8324358;28;19905;-76
2023/03/27 07:38:04;;;;;;;;;;;2.80;99.90;;;;;;8307204;28;19999;-76
2023/03/27 07:42:06;;;;;;;;;;;2.80;99.90;;;;;;8306687;28;19913;-78
2023/03/27 07:46:06;;;;;;;;;;;2.70;99.90;;;;;;8306631;28;19913;-78
2023/03/27 07:50:09;;;;;;;;;;;2.60;99.90;;;;;;8324296;28;19905;-77
2023/03/27 07:54:12;;;;;;;;;;;2.50;99.90;;;;;;8324764;28;19909;-78
2023/03/27 07:58:12;;;;;;;;;;;2.30;99.90;;;;;;8306993;28;19920;-77
2023/03/27 08:02:13;;;;;;;;;;;2.20;99.90;;;;;;8311399;28;19905;-76
2023/03/27 08:06:13;;;;;;;;;;;2.30;99.90;;;;;;8330946;28;19909;-76
2023/03/27 08:10:14;;;;;;;;;;;2.30;99.90;;;;;;8332541;28;20049;-77
2023/03/27 08:14:15;;;;;;;;;;;2.40;99.90;;;;;;8313148;28;20519;-76
2023/03/27 08:18:16;;;;;;;;;;;2.30;99.90;;;;;;8333893;28;19986;-76
2023/03/27 08:22:17;;;;;;;;;;;2.20;99.90;;;;;;8330755;28;19905;-76
2023/03/27 08:26:18;;;;;;;;;;;2.00;99.90;;;;;;8332252;28;19966;-76
2023/03/27 08:30:20;;;;;;;;;;;1.90;99.90;;;;;;8333878;28;19912;-77
2023/03/27 08:34:21;;;;;;;;;;;2.00;99.90;;;;;;8323889;28;19940;-77
2023/03/27 08:38:22;;;;;;;;;;;1.90;99.90;;;;;;8328896;28;19908;-76
2023/03/27 08:42:27;;;;;;;;;;;1.80;99.90;;;;;;8311726;28;19917;-77
2023/03/27 08:46:37;;;;;;;;;;;1.80;99.90;;;;;;8305125;28;19916;-77
2023/03/27 08:50:41;;;;;;;;;;;1.90;99.90;;;;;;8324143;28;20262;-77
2023/03/27 08:54:44;;;;;;;;;;;2.00;99.90;;;;;;8329714;28;19905;-78
2023/03/27 08:58:45;;;;;;;;;;;2.40;99.90;;;;;;8329490;28;19928;-77
2023/03/27 09:02:51;;;;;;;;;;;2.60;99.90;;;;;;8311154;28;19905;-76
2023/03/27 09:06:52;;;;;;;;;;;2.80;99.90;;;;;;8323192;28;20494;-77
2023/03/27 09:11:02;;;;;;;;;;;3.00;99.90;;;;;;8310815;28;19943;-77
2023/03/27 09:15:14;;;;;;;;;;;2.80;99.90;;;;;;8320911;28;19960;-77
2023/03/27 09:19:21;;;;;;;;;;;2.90;99.90;;;;;;8311270;28;19952;-77
2023/03/27 09:23:24;;;;;;;;;;;3.00;99.90;;;;;;8328486;28;19905;-76
2023/03/27 09:27:31;;;;;;;;;;;3.40;99.90;;;;;;8311569;28;20281;-78
2023/03/27 09:31:33;;;;;;;;;;;3.40;99.90;;;;;;8310044;28;19964;-77
2023/03/27 09:35:34;;;;;;;;;;;3.50;99.90;;;;;;8310682;28;19909;-77
2023/03/27 09:39:37;;;;;;;;;;;3.70;99.90;;;;;;8310781;28;19905;-77
2023/03/27 09:43:40;;;;;;;;;;;4.00;99.90;;;;;;8323222;28;20068;-77
2023/03/27 09:47:50;;;;;;;;;;;4.30;99.90;;;;;;8312856;28;19963;-77
2023/03/27 09:51:59;;;;;;;;;;;4.40;99.90;;;;;;8321798;28;19905;-76
2023/03/27 09:56:01;;;;;;;;;;;4.50;99.90;;;;;;8340588;28;19962;-76
2023/03/27 10:00:20;;;;;;;;;;;3.90;99.90;;;;;;8310938;28;19917;-76
2023/03/27 10:04:21;;;;;;;;;;;3.40;99.90;;;;;;8309489;28;19912;-77
2023/03/27 10:08:39;;;;;;;;;;;3.20;99.90;;;;;;8310878;28;19923;-77
2023/03/27 10:12:40;;;;;;;;;;;3.20;99.90;;;;;;8307616;28;19913;-76
2023/03/27 10:16:41;;;;;;;;;;;2.80;99.90;;;;;;8303086;28;20362;-76
2023/03/27 10:20:48;;;;;;;;;;;2.80;99.90;;;;;;8309259;28;19955;-77
2023/03/27 10:24:50;;;;;;;;;;;2.70;99.90;;;;;;8309199;28;20405;-77
2023/03/27 10:28:56;;;;;;;;;;;3.30;99.90;;;;;;8309121;28;19909;-77
2023/03/27 10:32:57;;;;;;;;;;;3.60;99.90;;;;;;8326738;28;20023;-77
2023/03/27 10:37:00;;;;;;;;;;;4.70;99.90;;;;;;8309312;28;19905;-76
2023/03/27 10:41:03;;;;;;;;;;;5.60;99.90;;;;;;8304296;28;20014;-77
2023/03/27 10:45:05;;;;;;;;;;;6.10;99.90;;;;;;8307778;28;20332;-77
2023/03/27 10:49:19;;;;;;;;;;;6.00;99.90;;;;;;8307336;28;19913;-78
2023/03/27 10:53:22;;;;;;;;;;;6.30;99.90;;;;;;8308336;28;19915;-77
2023/03/27 10:57:26;;;;;;;;;;;6.60;99.90;;;;;;8325945;28;19905;-77
2023/03/27 11:01:26;;;;;;;;;;;6.20;99.90;;;;;;8325036;28;19905;-77
2023/03/27 11:05:29;;;;;;;;;;;6.50;99.90;;;;;;8307714;28;19931;-77
2023/03/27 11:09:35;;;;;;;;;;;6.50;99.90;;;;;;8308229;28;19916;-77
2023/03/27 11:13:39;;;;;;;;;;;6.20;99.90;;;;;;8307924;28;19905;-77
2023/03/27 11:17:43;;;;;;;;;;;6.70;99.90;;;;;;8325528;28;19913;-77
2023/03/27 11:21:46;;;;;;;;;;;6.50;99.90;;;;;;8306554;28;19905;-77
2023/03/27 11:25:48;;;;;;;;;;;6.20;99.90;;;;;;8307594;28;19909;-77
2023/03/27 11:29:55;;;;;;;;;;;6.40;99.90;;;;;;8325168;28;19995;-77
2023/03/27 11:34:00;;;;;;;;;;;5.80;99.90;;;;;;8317872;28;20423;-77
2023/03/27 11:38:01;;;;;;;;;;;5.70;99.90;;;;;;8307099;28;19905;-76
2023/03/27 11:42:09;;;;;;;;;;;5.90;99.90;;;;;;8307626;28;20501;-77
2023/03/27 11:46:25;;;;;;;;;;;7.80;99.90;;;;;;8318639;28;19936;-77
2023/03/27 11:50:52;;;;;;;;;;;8.90;99.90;;;;;;8324812;28;19949;-76
2023/03/27 11:54:52;;;;;;;;;;;7.30;99.90;;;;;;8314616;28;19912;-77
2023/03/27 11:59:11;;;;;;;;;;;7.90;99.90;;;;;;8300102;28;19931;-77
2023/03/27 12:03:18;;;;;;;;;;;8.40;99.90;;;;;;8318962;28;20000;-78
2023/03/27 12:07:22;;;;;;;;;;;8.20;99.90;;;;;;8306664;28;19952;-78
2023/03/27 12:11:24;;;;;;;;;;;8.40;99.90;;;;;;8324341;28;20008;-78
2023/03/27 12:15:51;;;;;;;;;;;6.90;99.90;;;;;;8312384;28;19905;-77
2023/03/27 12:20:12;;;;;;;;;;;5.30;99.90;;;;;;8292752;28;19928;-77
2023/03/27 12:24:21;;;;;;;;;;;4.90;99.90;;;;;;8322219;28;19909;-76
2023/03/27 12:28:37;;;;;;;;;;;5.80;99.90;;;;;;8306407;28;20063;-77
2023/03/27 12:32:58;;;;;;;;;;;7.10;99.90;;;;;;8322665;28;19905;-77
2023/03/27 12:36:59;;;;;;;;;;;6.70;99.90;;;;;;8318399;28;20293;-77
2023/03/27 12:41:04;;;;;;;;;;;6.10;99.90;;;;;;8306271;28;19917;-77
2023/03/27 12:45:12;;;;;;;;;;;5.70;99.90;;;;;;8300344;28;20350;-77
2023/03/27 12:49:12;;;;;;;;;;;5.50;99.90;;;;;;8307953;28;19909;-77
2023/03/27 12:53:39;;;;;;;;;;;5.50;99.90;;;;;;8329225;28;19936;-77
2023/03/27 12:57:43;;;;;;;;;;;5.80;99.90;;;;;;8329684;28;19920;-77
2023/03/27 13:01:50;;;;;;;;;;;8.30;99.90;;;;;;8328424;28;19959;-77
2023/03/27 13:06:04;;;;;;;;;;;7.80;99.90;;;;;;8306592;28;19928;-77
2023/03/27 13:10:26;;;;;;;;;;;5.90;99.90;;;;;;8303286;28;19958;-77
2023/03/27 13:14:40;;;;;;;;;;;5.40;99.90;;;;;;8328737;28;19905;-77
2023/03/27 13:18:57;;;;;;;;;;;6.70;99.90;;;;;;8328335;28;19952;-77
2023/03/27 13:23:16;;;;;;;;;;;9.80;99.90;;;;;;8305406;28;19954;-78
2023/03/27 13:27:16;;;;;;;;;;;7.00;99.90;;;;;;8311763;28;20043;-77
2023/03/27 13:31:36;;;;;;;;;;;5.90;99.90;;;;;;8328500;28;20443;-76
2023/03/27 13:35:49;;;;;;;;;;;5.30;99.90;;;;;;8328786;28;19912;-77
2023/03/27 13:39:55;;;;;;;;;;;5.20;99.90;;;;;;8327423;28;19909;-78
2023/03/27 13:43:56;;;;;;;;;;;5.30;99.90;;;;;;8304323;28;19956;-80
2023/03/27 13:47:57;;;;;;;;;;;7.40;99.90;;;;;;8310438;28;19936;-77
2023/03/27 13:51:57;;;;;;;;;;;10.90;99.90;;;;;;8327980;28;19999;-77
2023/03/27 13:56:19;;;;;;;;;;;11.80;96.70;;;;;;8327635;28;19932;-77
2023/03/27 14:00:40;;;;;;;;;;;12.40;94.90;;;;;;8326550;28;19916;-78
2023/03/27 14:04:59;;;;;;;;;;;13.70;93.00;;;;;;8309547;28;20390;-77
2023/03/27 14:09:04;;;;;;;;;;;13.50;91.20;;;;;;8305886;28;20443;-77
2023/03/27 14:13:11;;;;;;;;;;;13.50;89.80;;;;;;8303606;28;19912;-78
2023/03/27 14:17:21;;;;;;;;;;;11.50;87.20;;;;;;8309525;28;19911;-77
2023/03/27 14:21:23;;;;;;;;;;;12.80;82.90;;;;;;8303405;28;19904;-77
2023/03/27 14:25:29;;;;;;;;;;;14.20;83.60;;;;;;8303493;28;19916;-78
2023/03/27 14:29:31;;;;;;;;;;;11.20;87.10;;;;;;8308919;28;19905;-78
2023/03/27 14:33:32;;;;;;;;;;;9.90;92.60;;;;;;8326934;28;19966;-78
2023/03/27 14:37:37;;;;;;;;;;;9.70;93.60;;;;;;8306995;28;19909;-77
2023/03/27 14:41:43;;;;;;;;;;;9.60;89.40;;;;;;8323358;28;19947;-78
2023/03/27 14:45:45;;;;;;;;;;;8.40;94.30;;;;;;8318674;28;19909;-78
2023/03/27 14:49:48;;;;;;;;;;;8.50;94.90;;;;;;8316672;28;20365;-77
2023/03/27 14:53:49;;;;;;;;;;;8.00;93.30;;;;;;8313126;28;19916;-77
2023/03/27 14:57:52;;;;;;;;;;;7.40;91.60;;;;;;8337259;28;19913;-77
2023/03/27 15:01:55;;;;;;;;;;;6.40;93.90;;;;;;8311948;28;19909;-78
2023/03/27 15:06:00;;;;;;;;;;;6.10;94.10;;;;;;8318779;28;20484;-77
2023/03/27 15:10:03;;;;;;;;;;;6.10;94.90;;;;;;8307353;28;19905;-77
2023/03/27 15:14:27;;;;;;;;;;;5.90;96.60;;;;;;8319736;28;19924;-77
2023/03/27 15:18:48;;;;;;;;;;;5.60;98.50;;;;;;8303129;28;19909;-78
2023/03/27 15:22:51;;;;;;;;;;;5.60;99.50;;;;;;8339189;23;19926;-77
2023/03/27 15:26:53;;;;;;;;;;;6.00;97.30;;;;;;8339662;28;20015;-78
2023/03/27 15:30:56;;;;;;;;;;;6.30;99.20;;;;;;8316518;28;19955;-78
2023/03/27 15:35:02;;;;;;;;;;;6.30;99.30;;;;;;8326503;28;20285;-77
2023/03/27 15:39:03;;;;;;;;;;;6.00;97.90;;;;;;8321163;28;20455;-78
2023/03/27 15:43:05;;;;;;;;;;;5.90;99.80;;;;;;8315864;28;19918;-79
2023/03/27 15:47:21;;;;;;;;;;;5.70;98.80;;;;;;8328168;28;19919;-80
2023/03/27 15:51:21;;;;;;;;;;;5.10;99.90;;;;;;8324386;28;19910;-80
2023/03/27 15:55:34;;;;;;;;;;;4.40;99.90;;;;;;8323193;28;20432;-80
2023/03/27 15:59:35;;;;;;;;;;;4.10;99.90;;;;;;8326999;28;19905;-80
2023/03/27 16:03:37;;;;;;;;;;;3.70;99.90;;;;;;8314495;28;20273;-80
2023/03/27 16:07:37;;;;;;;;;;;3.30;99.90;;;;;;8312826;28;19913;-79
2023/03/27 16:11:42;;;;;;;;;;;3.00;99.90;;;;;;8300363;28;20286;-80
2023/03/27 16:15:45;;;;;;;;;;;3.00;99.90;;;;;;8309031;28;19978;-81
2023/03/27 16:19:56;;;;;;;;;;;3.30;99.90;;;;;;8304019;28;19983;-79
2023/03/27 16:23:57;;;;;;;;;;;3.70;99.90;;;;;;8309037;28;20274;-79
2023/03/27 16:27:57;;;;;;;;;;;4.00;99.90;;;;;;8322934;28;19913;-80
2023/03/27 16:31:58;;;;;;;;;;;4.20;99.90;;;;;;8320831;28;19916;-80
2023/03/27 16:35:59;;;;;;;;;;;4.30;99.90;;;;;;8328044;28;19909;-80
2023/03/27 16:39:59;;;;;;;;;;;4.20;99.90;;;;;;8327241;28;19905;-79
2023/03/27 16:44:00;;;;;;;;;;;4.00;99.90;;;;;;8481965;23;19927;-80
2023/03/27 16:48:01;;;;;;;;;;;3.90;99.90;;;;;;8355146;28;19946;-80
2023/03/27 17:13:44;;;;;;;;;;;3.50;99.90;;;;;;8304325;28;19924;-79
2023/03/27 17:17:45;;;;;;;;;;;3.50;99.90;;;;;;8296977;28;20392;-78
2023/03/27 17:21:45;;;;;;;;;;;3.70;99.90;;;;;;8298263;28;20424;-78
2023/03/27 17:25:47;;;;;;;;;;;3.50;99.90;;;;;;8317855;28;19913;-79
2023/03/27 17:29:47;;;;;;;;;;;3.30;99.90;;;;;;8297030;28;19909;-79
2023/03/27 17:33:48;;;;;;;;;;;3.20;99.90;;;;;;8298169;28;19913;-78
2023/03/27 17:37:48;;;;;;;;;;;3.10;99.90;;;;;;8298158;28;20289;-79
2023/03/27 17:41:49;;;;;;;;;;;3.40;99.90;;;;;;8316473;28;19906;-79
2023/03/27 17:45:50;;;;;;;;;;;3.20;99.90;;;;;;8293610;28;20057;-79
2023/03/27 17:49:52;;;;;;;;;;;3.20;99.90;;;;;;8297954;28;20366;-79
2023/03/27 17:53:52;;;;;;;;;;;3.40;99.90;;;;;;8308601;28;19910;-78
2023/03/27 17:57:54;;;;;;;;;;;3.40;99.90;;;;;;8295911;28;20316;-79
2023/03/27 18:01:55;;;;;;;;;;;3.20;99.90;;;;;;8290443;28;20090;-79
2023/03/27 18:06:01;;;;;;;;;;;3.20;99.90;;;;;;8306571;28;20019;-79
2023/03/27 18:10:02;;;;;;;;;;;3.10;99.90;;;;;;8303363;28;20377;-80
2023/03/27 18:14:02;;;;;;;;;;;3.10;99.90;;;;;;8297314;28;19906;-80
2023/03/27 18:18:03;;;;;;;;;;;3.10;99.90;;;;;;8299041;28;19906;-80
2023/03/27 18:22:03;;;;;;;;;;;3.00;99.90;;;;;;8310902;28;19905;-79
2023/03/27 18:26:05;;;;;;;;;;;3.10;99.90;;;;;;8295650;28;19922;-80
2023/03/27 18:30:11;;;;;;;;;;;3.10;99.90;;;;;;8296045;28;19905;-80
2023/03/27 18:34:11;;;;;;;;;;;3.00;99.90;;;;;;8297065;28;19905;-80
2023/03/27 18:38:13;;;;;;;;;;;3.30;99.90;;;;;;8295938;28;19913;-80
2023/03/27 18:42:14;;;;;;;;;;;3.40;99.90;;;;;;8320594;28;20276;-79
2023/03/27 18:46:15;;;;;;;;;;;2.80;99.90;;;;;;8296446;28;19913;-78
2023/03/27 18:50:16;;;;;;;;;;;2.40;99.90;;;;;;8300224;28;19914;-79
2023/03/27 18:54:16;;;;;;;;;;;2.20;99.90;;;;;;8303471;28;19905;-78
2023/03/27 18:58:17;;;;;;;;;;;2.20;99.90;;;;;;8297496;28;20404;-79
2023/03/27 19:02:20;;;;;;;;;;;2.00;99.90;;;;;;8319189;28;20268;-78
2023/03/27 19:06:21;;;;;;;;;;;1.80;99.90;;;;;;8310017;28;19921;-79
2023/03/27 19:10:21;;;;;;;;;;;1.70;99.90;;;;;;8294745;28;20389;-79
2023/03/27 19:14:22;;;;;;;;;;;1.40;99.90;;;;;;8327758;28;19909;-79
2023/03/27 19:18:24;;;;;;;;;;;1.40;99.90;;;;;;8291927;28;19947;-79
2023/03/27 19:22:25;;;;;;;;;;;1.40;99.90;;;;;;8295593;28;19909;-79
2023/03/27 19:26:25;;;;;;;;;;;0.90;99.90;;;;;;8299782;28;19963;-79
2023/03/27 19:30:26;;;;;;;;;;;0.60;99.90;;;;;;8305661;28;19909;-78
2023/03/27 19:34:27;;;;;;;;;;;0.30;99.90;;;;;;8300897;28;19913;-78
2023/03/27 19:38:27;;;;;;;;;;;0.10;99.90;;;;;;8300341;28;19912;-78
2023/03/27 19:42:28;;;;;;;;;;;-0.10;99.90;;;;;;8299069;28;20302;-78
2023/03/27 19:46:28;;;;;;;;;;;-0.20;99.90;;;;;;8294559;28;19913;-78
2023/03/27 19:50:29;;;;;;;;;;;-0.30;99.90;;;;;;8296370;28;19955;-78
2023/03/27 19:54:30;;;;;;;;;;;-0.30;99.90;;;;;;8296692;28;19964;-78
2023/03/27 19:58:30;;;;;;;;;;;-0.30;99.90;;;;;;8301214;28;19918;-78
2023/03/27 20:02:31;;;;;;;;;;;-0.30;99.90;;;;;;8301664;28;19971;-77
2023/03/27 20:06:32;;;;;;;;;;;-0.20;99.90;;;;;;8308657;28;20010;-78
2023/03/27 20:10:33;;;;;;;;;;;-0.20;99.90;;;;;;8320373;28;19929;-79
2023/03/27 20:14:33;;;;;;;;;;;0.00;99.90;;;;;;8303298;28;19909;-78
2023/03/27 20:18:34;;;;;;;;;;;0.00;99.90;;;;;;8298888;28;19955;-78
2023/03/27 20:22:34;;;;;;;;;;;0.10;99.90;;;;;;8297434;28;19909;-78
2023/03/27 20:26:38;;;;;;;;;;;0.10;99.90;;;;;;8297010;28;19924;-78
2023/03/27 20:30:39;;;;;;;;;;;0.10;99.90;;;;;;8297198;28;19905;-78
2023/03/27 20:34:39;;;;;;;;;;;0.10;99.90;;;;;;8299037;28;19912;-78
2023/03/27 20:38:40;;;;;;;;;;;0.00;99.90;;;;;;8299344;28;19916;-78
2023/03/27 20:42:45;;;;;;;;;;;-0.20;99.90;;;;;;8300101;28;20019;-78
2023/03/27 20:46:49;;;;;;;;;;;-0.50;99.90;;;;;;8299628;28;19909;-78
2023/03/27 20:50:50;;;;;;;;;;;-0.60;99.90;;;;;;8299424;28;19917;-79
2023/03/27 20:54:51;;;;;;;;;;;-0.50;99.90;;;;;;8300701;28;20364;-79
2023/03/27 20:58:52;;;;;;;;;;;-0.50;99.90;;;;;;8298449;28;19916;-78
2023/03/27 21:02:52;;;;;;;;;;;-0.30;99.90;;;;;;8299924;28;19951;-79
2023/03/27 21:06:56;;;;;;;;;;;-0.40;99.90;;;;;;8300708;28;19913;-79
2023/03/27 21:10:57;;;;;;;;;;;-0.50;99.90;;;;;;8299746;28;19905;-79
2023/03/27 21:14:57;;;;;;;;;;;-0.40;99.90;;;;;;8300922;28;20369;-78
2023/03/27 21:18:58;;;;;;;;;;;-0.40;99.90;;;;;;8297710;28;20411;-79
2023/03/27 21:22:58;;;;;;;;;;;-0.10;99.90;;;;;;8300241;28;20382;-78
2023/03/27 21:26:58;;;;;;;;;;;0.10;99.90;;;;;;8332935;22;20327;-77
2023/03/27 21:31:01;;;;;;;;;;;0.00;99.90;;;;;;8294164;28;19909;-76
2023/03/27 21:35:01;;;;;;;;;;;0.60;99.90;;;;;;8288338;28;20377;-78
2023/03/27 21:39:02;;;;;;;;;;;0.60;99.90;;;;;;8266912;28;19909;-77
2023/03/27 21:43:02;;;;;;;;;;;0.60;99.90;;;;;;8262471;28;20056;-77
2023/03/27 21:47:03;;;;;;;;;;;0.80;99.90;;;;;;8262045;28;19941;-77
2023/03/27 21:51:04;;;;;;;;;;;0.70;99.90;;;;;;8261445;28;19906;-78
2023/03/27 21:55:05;;;;;;;;;;;0.80;99.90;;;;;;8266976;28;21571;-77
2023/03/27 21:59:05;;;;;;;;;;;1.00;99.90;;;;;;8261229;28;20029;-76
2023/03/27 22:03:06;;;;;;;;;;;1.10;99.90;;;;;;8259498;28;20343;-77
2023/03/27 22:07:06;;;;;;;;;;;1.20;99.90;;;;;;8261309;28;20029;-77
2023/03/27 22:11:07;;;;;;;;;;;1.30;99.90;;;;;;8261197;28;19912;-76
2023/03/27 22:15:08;;;;;;;;;;;1.40;99.90;;;;;;8261568;28;19975;-77
2023/03/27 22:19:09;;;;;;;;;;;1.20;99.90;;;;;;8260416;28;19906;-76
2023/03/27 22:23:10;;;;;;;;;;;1.20;99.90;;;;;;8260099;28;19910;-77
2023/03/27 22:27:10;;;;;;;;;;;1.60;99.90;;;;;;8258971;28;20417;-76
2023/03/27 22:31:11;;;;;;;;;;;1.30;99.90;;;;;;8260261;28;19916;-77
2023/03/27 22:35:12;;;;;;;;;;;1.40;99.90;;;;;;8260794;28;19916;-76
2023/03/27 22:39:12;;;;;;;;;;;1.40;99.90;;;;;;8261882;28;19921;-78
2023/03/27 22:43:12;;;;;;;;;;;1.30;99.90;;;;;;8260289;28;19979;-77
2023/03/27 22:47:13;;;;;;;;;;;1.20;99.90;;;;;;8260159;28;19917;-77
2023/03/27 22:51:13;;;;;;;;;;;1.00;99.90;;;;;;8260017;28;19918;-78
2023/03/27 22:55:14;;;;;;;;;;;0.80;99.90;;;;;;8260756;28;19913;-77
2023/03/27 22:59:16;;;;;;;;;;;0.70;99.90;;;;;;8259708;28;19906;-78
2023/03/27 23:03:17;;;;;;;;;;;0.80;99.90;;;;;;8259604;28;20565;-77
2023/03/27 23:07:17;;;;;;;;;;;0.30;99.90;;;;;;8259959;28;20589;-77
2023/03/27 23:11:18;;;;;;;;;;;-0.10;99.90;;;;;;8259798;28;19913;-77
2023/03/27 23:15:18;;;;;;;;;;;0.10;99.90;;;;;;8259758;28;19912;-76
2023/03/27 23:19:19;;;;;;;;;;;0.30;99.90;;;;;;8260727;28;20358;-77
2023/03/27 23:23:19;;;;;;;;;;;0.40;99.90;;;;;;8259323;28;19960;-77
2023/03/27 23:27:20;;;;;;;;;;;0.70;99.90;;;;;;8260170;28;19921;-77
2023/03/27 23:31:20;;;;;;;;;;;0.70;99.90;;;;;;8258588;28;19992;-77
2023/03/27 23:35:21;;;;;;;;;;;0.70;99.90;;;;;;8260311;28;19917;-77
2023/03/27 23:39:21;;;;;;;;;;;1.00;99.90;;;;;;8258892;28;19913;-77
2023/03/27 23:43:22;;;;;;;;;;;0.90;99.90;;;;;;8259952;28;20284;-78
2023/03/27 23:47:23;;;;;;;;;;;0.90;99.90;;;;;;8259933;28;19969;-77
2023/03/27 23:51:23;;;;;;;;;;;0.80;99.90;;;;;;8258024;28;20530;-77
2023/03/27 23:55:24;;;;;;;;;;;0.60;99.90;;;;;;8258172;28;20270;-77
2023/03/27 23:59:24;;;;;;;;;;;0.50;99.90;;;;;;8258621;28;20336;-78
